Time;durP1;ratioP1;P1;durP2;ratioP2;P2;SDS_P1;SDS_P2;PMS_P1;PMS_P2;Temp;Humidity;BMP_temperature;BMP_pressure;BME280_temperature;BME280_humidity;BME280_pressure;Samples;Min_cycle;Max_cycle;Signal;HPM_P1;HPM_P2
2024/03/22 00:00:53;;;;;;;64.57;28.67;;;9.10;99.90;;;;;;4998359;28;20050;-80
2024/03/22 00:03:20;;;;;;;58.55;27.63;;;9.10;99.90;;;;;;4986677;28;20034;-79
2024/03/22 00:05:48;;;;;;;64.78;28.77;;;9.10;99.90;;;;;;4999978;28;20047;-80
2024/03/22 00:08:16;;;;;;;66.45;28.65;;;9.10;99.90;;;;;;4979689;28;20050;-77
2024/03/22 00:10:42;;;;;;;62.88;28.33;;;9.00;99.90;;;;;;4996073;28;20085;-78
2024/03/22 00:13:09;;;;;;;63.78;28.45;;;9.00;99.90;;;;;;4983677;28;20057;-80
2024/03/22 00:15:36;;;;;;;68.10;30.20;;;9.10;99.90;;;;;;5012809;28;20196;-81
2024/03/22 00:18:03;;;;;;;65.63;28.27;;;9.00;99.90;;;;;;4982590;28;20053;-80
2024/03/22 00:20:30;;;;;;;67.07;29.63;;;9.00;99.90;;;;;;5000116;28;20172;-80
2024/03/22 00:22:59;;;;;;;59.08;26.95;;;9.00;99.90;;;;;;5000963;28;20038;-80
2024/03/22 00:25:25;;;;;;;58.47;28.33;;;9.00;99.90;;;;;;4991960;28;20050;-80
2024/03/22 00:27:52;;;;;;;67.30;28.63;;;9.00;99.90;;;;;;4994234;28;20039;-80
2024/03/22 00:30:19;;;;;;;60.90;27.25;;;9.00;99.90;;;;;;4983569;28;20186;-79
2024/03/22 00:32:47;;;;;;;64.93;28.70;;;8.90;99.90;;;;;;4998729;28;20054;-81
2024/03/22 00:35:14;;;;;;;60.63;27.02;;;8.90;99.90;;;;;;4985864;28;20502;-79
2024/03/22 00:37:41;;;;;;;56.15;23.80;;;8.40;99.90;;;;;;4998408;28;20140;-79
2024/03/22 00:40:10;;;;;;;55.13;24.95;;;8.90;99.90;;;;;;4995817;28;20038;-79
2024/03/22 00:42:38;;;;;;;49.63;23.25;;;8.90;99.90;;;;;;4992871;28;20450;-80
2024/03/22 00:45:05;;;;;;;46.35;22.83;;;8.90;99.90;;;;;;4999127;28;20042;-79
2024/03/22 00:47:32;;;;;;;49.00;21.52;;;8.90;99.90;;;;;;4980941;28;20096;-80
2024/03/22 00:49:59;;;;;;;46.10;19.30;;;8.90;99.90;;;;;;4999573;28;20054;-80
2024/03/22 00:52:27;;;;;;;45.10;18.30;;;8.90;99.90;;;;;;4986842;28;20143;-80
2024/03/22 00:54:53;;;;;;;42.42;19.30;;;8.90;99.90;;;;;;5011644;28;20037;-80
2024/03/22 00:57:22;;;;;;;41.03;19.27;;;8.90;99.90;;;;;;4992756;28;20425;-79
2024/03/22 00:59:48;;;;;;;34.65;16.35;;;8.90;99.90;;;;;;4992820;28;20042;-79
2024/03/22 01:02:15;;;;;;;30.63;14.23;;;8.90;99.90;;;;;;4999908;28;20038;-79
2024/03/22 01:04:42;;;;;;;29.67;14.40;;;8.90;99.90;;;;;;4998910;28;20049;-80
2024/03/22 01:07:09;;;;;;;32.35;14.18;;;8.90;99.90;;;;;;4987307;28;20058;-80
2024/03/22 01:09:36;;;;;;;31.40;14.10;;;8.90;99.90;;;;;;5007250;28;20037;-79
2024/03/22 01:12:03;;;;;;;34.03;14.40;;;8.90;99.90;;;;;;5008565;28;20113;-81
2024/03/22 01:14:32;;;;;;;28.52;13.52;;;8.90;99.90;;;;;;4993017;28;20050;-76
2024/03/22 01:16:59;;;;;;;28.55;13.02;;;8.90;99.90;;;;;;4994052;28;20046;-80
2024/03/22 01:19:25;;;;;;;27.70;12.75;;;8.90;99.90;;;;;;5009088;28;20567;-80
2024/03/22 01:21:53;;;;;;;29.13;13.40;;;8.90;99.90;;;;;;4996121;28;20049;-77
2024/03/22 01:24:19;;;;;;;26.55;12.95;;;8.90;99.90;;;;;;4990779;28;20049;-80
2024/03/22 01:26:46;;;;;;;34.50;13.93;;;8.90;99.90;;;;;;4990662;28;20050;-78
2024/03/22 01:29:14;;;;;;;29.75;13.50;;;8.90;99.90;;;;;;5009505;28;20046;-80
2024/03/22 01:31:42;;;;;;;28.02;13.43;;;8.90;99.90;;;;;;5007000;28;20046;-80
2024/03/22 01:34:09;;;;;;;29.73;13.20;;;8.90;99.90;;;;;;4991735;28;20046;-81
2024/03/22 01:36:36;;;;;;;31.75;13.25;;;8.90;99.90;;;;;;5006123;28;20041;-79
2024/03/22 01:39:02;;;;;;;29.23;12.52;;;8.90;99.90;;;;;;5007479;28;20053;-80
2024/03/22 01:41:30;;;;;;;28.98;14.00;;;8.90;99.90;;;;;;5005268;28;20608;-80
2024/03/22 01:43:56;;;;;;;29.60;13.90;;;8.90;99.90;;;;;;4988307;28;20048;-79
2024/03/22 01:46:23;;;;;;;28.00;13.38;;;8.80;99.90;;;;;;4995164;28;20054;-81
2024/03/22 01:48:52;;;;;;;30.45;12.85;;;8.90;99.90;;;;;;4988188;28;20071;-81
2024/03/22 01:51:19;;;;;;;33.10;13.55;;;8.90;99.90;;;;;;5023956;28;20046;-81
2024/03/22 01:53:46;;;;;;;29.10;13.15;;;8.90;99.90;;;;;;5007797;28;20034;-80
2024/03/22 01:56:13;;;;;;;29.38;14.10;;;8.90;99.90;;;;;;4995552;28;20046;-80
2024/03/22 01:58:40;;;;;;;29.23;13.75;;;8.90;99.90;;;;;;5007738;28;20059;-81
2024/03/22 02:01:08;;;;;;;30.48;12.68;;;8.90;99.90;;;;;;5007778;28;20136;-81
2024/03/22 02:03:36;;;;;;;27.90;12.32;;;8.90;99.90;;;;;;5010875;28;20041;-81
2024/03/22 02:06:05;;;;;;;28.27;12.98;;;8.90;99.90;;;;;;5007430;28;20061;-79
2024/03/22 02:08:31;;;;;;;29.45;12.75;;;8.90;99.90;;;;;;4977045;28;20050;-80
2024/03/22 02:10:59;;;;;;;33.90;14.95;;;8.90;99.90;;;;;;4997228;28;20053;-80
2024/03/22 02:13:25;;;;;;;28.60;12.75;;;8.90;99.90;;;;;;4991033;28;20046;-79
2024/03/22 02:15:52;;;;;;;26.40;12.20;;;8.90;99.90;;;;;;5026525;28;20089;-82
2024/03/22 02:18:19;;;;;;;28.02;12.68;;;8.80;99.90;;;;;;5013281;28;20046;-76
2024/03/22 02:20:46;;;;;;;29.85;11.85;;;8.80;99.90;;;;;;4992021;28;20069;-74
2024/03/22 02:23:14;;;;;;;25.15;10.93;;;8.80;99.90;;;;;;4988969;28;20041;-75
2024/03/22 02:25:43;;;;;;;30.00;11.95;;;8.80;99.90;;;;;;4974680;28;20046;-74
2024/03/22 02:28:09;;;;;;;23.05;11.23;;;8.90;99.90;;;;;;4987116;28;20129;-74
2024/03/22 02:30:36;;;;;;;24.10;11.18;;;8.90;99.90;;;;;;4972174;28;20038;-74
2024/03/22 02:33:03;;;;;;;25.67;11.65;;;8.90;99.90;;;;;;4984685;28;20073;-74
2024/03/22 02:35:30;;;;;;;25.20;12.50;;;8.90;99.90;;;;;;4991885;28;20505;-74
2024/03/22 02:37:58;;;;;;;31.15;12.60;;;8.80;99.90;;;;;;4974976;28;20100;-74
2024/03/22 02:40:26;;;;;;;26.75;11.98;;;8.90;99.90;;;;;;4991402;28;20084;-74
2024/03/22 02:42:54;;;;;;;33.50;12.60;;;8.80;99.90;;;;;;4995147;28;20038;-74
2024/03/22 02:45:21;;;;;;;25.08;11.63;;;8.90;99.90;;;;;;4989920;28;20042;-74
2024/03/22 02:47:49;;;;;;;25.42;11.85;;;8.80;99.90;;;;;;4984833;28;20089;-74
2024/03/22 02:50:15;;;;;;;28.15;12.60;;;8.90;99.90;;;;;;4989033;28;20956;-74
2024/03/22 02:52:42;;;;;;;27.70;11.77;;;8.80;99.90;;;;;;4988924;28;20052;-76
2024/03/22 02:55:09;;;;;;;26.65;11.35;;;8.80;99.90;;;;;;5003883;28;20037;-74
2024/03/22 02:57:36;;;;;;;25.58;11.82;;;8.80;99.90;;;;;;4988423;28;20074;-74
2024/03/22 03:00:05;;;;;;;27.58;10.95;;;8.80;99.90;;;;;;4987727;28;20048;-75
2024/03/22 03:02:33;;;;;;;29.88;11.85;;;8.80;99.90;;;;;;4971193;28;20034;-76
2024/03/22 03:04:59;;;;;;;26.45;11.70;;;8.80;99.90;;;;;;4994650;28;20050;-75
2024/03/22 03:07:27;;;;;;;22.95;11.23;;;8.80;99.90;;;;;;4980060;28;20046;-74
2024/03/22 03:09:54;;;;;;;24.10;11.15;;;8.80;99.90;;;;;;4991171;28;20045;-76
2024/03/22 03:12:21;;;;;;;26.42;11.30;;;8.80;99.90;;;;;;4988650;28;20065;-74
2024/03/22 03:14:47;;;;;;;27.02;11.60;;;8.80;99.90;;;;;;4992889;28;20127;-73
2024/03/22 03:17:16;;;;;;;24.95;11.88;;;8.80;99.90;;;;;;4989960;28;20544;-74
2024/03/22 03:19:42;;;;;;;25.58;12.68;;;8.80;99.90;;;;;;4991373;28;20047;-74
2024/03/22 03:22:10;;;;;;;24.02;11.68;;;8.80;99.90;;;;;;4985713;28;20258;-74
2024/03/22 03:24:36;;;;;;;24.70;11.82;;;8.80;99.90;;;;;;4992167;28;20034;-73
2024/03/22 03:27:04;;;;;;;26.25;12.65;;;8.80;99.90;;;;;;4984061;28;20038;-74
2024/03/22 03:29:30;;;;;;;30.25;12.35;;;8.80;99.90;;;;;;4972078;28;20048;-82
2024/03/22 03:31:57;;;;;;;25.45;12.10;;;8.80;99.90;;;;;;5001351;28;20034;-80
2024/03/22 03:34:25;;;;;;;28.33;12.10;;;8.80;99.90;;;;;;4996472;28;20092;-79
2024/03/22 03:36:53;;;;;;;25.20;12.52;;;8.80;99.90;;;;;;5000421;28;20058;-81
2024/03/22 03:39:20;;;;;;;31.38;13.55;;;8.80;99.90;;;;;;4996799;28;20034;-74
2024/03/22 03:41:47;;;;;;;29.02;12.05;;;8.70;99.90;;;;;;4975297;28;20053;-75
2024/03/22 03:44:14;;;;;;;32.17;12.98;;;8.70;99.90;;;;;;5003112;28;20034;-76
2024/03/22 03:46:40;;;;;;;27.85;12.52;;;8.70;99.90;;;;;;4988689;28;20505;-74
2024/03/22 03:49:08;;;;;;;29.02;13.38;;;8.70;99.90;;;;;;4985019;28;20039;-74
2024/03/22 03:51:35;;;;;;;28.40;11.95;;;8.70;99.90;;;;;;4989851;28;20046;-73
2024/03/22 03:54:03;;;;;;;25.88;12.75;;;8.70;99.90;;;;;;4995447;28;20033;-74
2024/03/22 03:56:30;;;;;;;27.80;12.07;;;8.70;99.90;;;;;;4970096;28;20058;-74
2024/03/22 03:58:57;;;;;;;29.58;12.52;;;8.70;99.90;;;;;;4990627;28;20044;-76
2024/03/22 04:01:24;;;;;;;28.15;12.70;;;8.70;99.90;;;;;;5001356;28;20054;-74
2024/03/22 04:03:51;;;;;;;30.77;13.45;;;8.70;99.90;;;;;;4976324;28;20051;-74
2024/03/22 04:06:17;;;;;;;31.40;13.25;;;8.70;99.90;;;;;;4990822;28;20060;-76
2024/03/22 04:08:46;;;;;;;30.13;13.13;;;8.70;99.90;;;;;;4990265;28;20049;-73
2024/03/22 04:11:13;;;;;;;29.63;12.93;;;8.70;99.90;;;;;;4985939;28;20489;-74
2024/03/22 04:13:40;;;;;;;23.65;12.30;;;8.70;99.90;;;;;;4972362;28;20510;-74
2024/03/22 04:16:06;;;;;;;25.23;11.88;;;8.70;99.90;;;;;;4972878;28;20121;-73
2024/03/22 04:18:34;;;;;;;26.65;13.13;;;8.70;99.90;;;;;;4977581;28;20042;-75
2024/03/22 04:21:01;;;;;;;28.35;13.93;;;8.70;99.90;;;;;;4971322;28;20039;-75
2024/03/22 04:23:28;;;;;;;27.70;13.05;;;8.60;99.90;;;;;;4954893;28;20054;-75
2024/03/22 04:25:58;;;;;;;27.58;12.30;;;8.60;99.90;;;;;;4959775;28;20047;-76
2024/03/22 04:28:26;;;;;;;31.08;13.95;;;8.60;99.90;;;;;;4971117;28;20117;-75
2024/03/22 04:30:58;;;;;;;31.63;13.48;;;8.60;99.90;;;;;;4975888;28;20501;-74
2024/03/22 04:33:25;;;;;;;31.92;14.18;;;8.60;99.90;;;;;;4973839;28;20826;-74
2024/03/22 04:35:52;;;;;;;30.77;13.55;;;8.60;99.90;;;;;;4954854;28;20051;-74
2024/03/22 04:38:19;;;;;;;27.95;12.90;;;8.60;99.90;;;;;;4967317;28;20047;-74
2024/03/22 04:40:47;;;;;;;30.15;13.88;;;8.60;99.90;;;;;;4957880;28;20035;-74
2024/03/22 04:43:16;;;;;;;26.88;13.70;;;8.60;99.90;;;;;;4984705;28;20097;-75
2024/03/22 04:45:44;;;;;;;31.55;14.82;;;8.60;99.90;;;;;;4971849;28;20051;-75
2024/03/22 04:48:12;;;;;;;30.10;14.45;;;8.60;99.90;;;;;;4970976;28;20062;-74
2024/03/22 04:50:39;;;;;;;31.98;14.93;;;8.60;99.90;;;;;;4957790;28;20042;-74
2024/03/22 04:53:06;;;;;;;32.47;14.98;;;8.60;99.90;;;;;;4974050;28;20078;-74
2024/03/22 04:55:34;;;;;;;34.22;15.48;;;8.50;99.90;;;;;;4973594;28;20405;-74
2024/03/22 04:58:00;;;;;;;34.60;16.67;;;8.60;99.90;;;;;;4960408;28;20561;-75
2024/03/22 05:00:29;;;;;;;34.53;15.82;;;8.60;99.90;;;;;;4959610;28;20104;-74
2024/03/22 05:02:55;;;;;;;34.40;16.50;;;8.60;99.90;;;;;;4955942;28;21099;-74
2024/03/22 05:05:23;;;;;;;36.85;16.42;;;8.60;99.90;;;;;;4974726;28;20768;-74
2024/03/22 05:07:49;;;;;;;44.47;17.08;;;8.60;99.90;;;;;;4971886;28;20816;-74
2024/03/22 05:10:17;;;;;;;43.50;17.63;;;8.60;99.90;;;;;;4970321;28;20506;-74
2024/03/22 05:12:43;;;;;;;40.88;17.08;;;8.60;99.90;;;;;;4960037;28;20050;-74
2024/03/22 05:15:11;;;;;;;35.17;16.48;;;8.60;99.90;;;;;;4969938;28;20147;-74
2024/03/22 05:17:41;;;;;;;42.22;17.42;;;8.60;99.90;;;;;;4969271;28;20065;-75
2024/03/22 05:20:10;;;;;;;38.20;17.50;;;8.60;99.90;;;;;;4967493;28;20416;-74
2024/03/22 05:22:37;;;;;;;37.13;17.00;;;8.60;99.90;;;;;;4974098;28;20101;-74
2024/03/22 05:25:05;;;;;;;44.67;18.52;;;8.60;99.90;;;;;;4966803;28;20109;-75
2024/03/22 05:27:32;;;;;;;38.90;16.98;;;8.70;99.90;;;;;;4965243;28;20040;-74
2024/03/22 05:29:59;;;;;;;38.65;18.15;;;8.70;99.90;;;;;;4966101;28;20042;-76
2024/03/22 05:32:26;;;;;;;42.97;18.45;;;8.70;99.90;;;;;;4983978;28;20521;-74
2024/03/22 05:34:55;;;;;;;45.65;19.70;;;8.70;99.90;;;;;;4973198;28;20038;-74
2024/03/22 05:37:22;;;;;;;40.47;19.55;;;8.70;99.90;;;;;;4971977;28;20474;-76
2024/03/22 05:39:49;;;;;;;46.45;18.42;;;8.70;99.90;;;;;;4976596;28;20042;-74
2024/03/22 05:42:16;;;;;;;43.03;17.98;;;8.80;99.90;;;;;;4969179;28;20070;-74
2024/03/22 05:44:44;;;;;;;40.58;19.02;;;8.80;99.90;;;;;;4960007;28;20081;-74
2024/03/22 05:47:10;;;;;;;40.88;19.63;;;8.80;99.90;;;;;;4957999;28;20078;-73
2024/03/22 05:49:38;;;;;;;40.85;19.38;;;8.80;99.90;;;;;;4971954;28;20058;-74
2024/03/22 05:52:06;;;;;;;45.88;20.45;;;8.90;99.90;;;;;;4990865;28;20511;-74
2024/03/22 05:54:33;;;;;;;46.67;21.40;;;8.90;99.90;;;;;;4954763;28;20382;-75
2024/03/22 05:57:00;;;;;;;49.45;22.20;;;8.90;99.90;;;;;;4964604;28;20046;-74
2024/03/22 05:59:28;;;;;;;51.03;21.45;;;8.90;99.90;;;;;;4969005;28;20454;-74
2024/03/22 06:01:55;;;;;;;47.60;22.20;;;8.90;99.90;;;;;;4972363;28;20047;-78
2024/03/22 06:04:23;;;;;;;47.72;20.35;;;8.90;99.90;;;;;;4973156;28;20906;-78
2024/03/22 06:06:50;;;;;;;44.35;19.83;;;9.00;99.90;;;;;;4956173;28;20051;-77
2024/03/22 06:09:24;;;;;;;45.38;18.90;;;9.00;99.90;;;;;;4989536;28;20041;-78
2024/03/22 06:11:52;;;;;;;40.00;18.40;;;9.10;99.90;;;;;;4974487;28;20096;-78
2024/03/22 06:14:18;;;;;;;46.50;20.02;;;9.10;99.90;;;;;;4971400;28;20453;-77
2024/03/22 06:16:46;;;;;;;41.45;18.92;;;9.20;99.90;;;;;;4985901;28;20047;-78
2024/03/22 06:19:12;;;;;;;40.47;18.65;;;9.30;99.90;;;;;;4968671;28;20061;-78
2024/03/22 06:21:39;;;;;;;42.33;18.45;;;9.40;99.90;;;;;;4972004;28;20085;-79
2024/03/22 06:24:06;;;;;;;41.80;17.52;;;9.40;99.90;;;;;;4954413;28;20039;-78
2024/03/22 06:26:35;;;;;;;38.10;16.33;;;9.50;99.90;;;;;;4989752;28;20038;-78
2024/03/22 06:29:02;;;;;;;42.65;17.17;;;9.60;99.90;;;;;;4968448;28;20049;-78
2024/03/22 06:31:29;;;;;;;36.75;15.93;;;9.60;99.90;;;;;;4973607;28;20129;-78
2024/03/22 06:34:01;;;;;;;33.95;16.25;;;9.60;99.90;;;;;;4972237;28;20058;-79
2024/03/22 06:36:29;;;;;;;36.72;15.30;;;9.70;99.90;;;;;;4973455;28;20073;-79
2024/03/22 06:38:56;;;;;;;34.63;17.08;;;9.70;99.90;;;;;;4971239;28;20054;-78
2024/03/22 06:41:23;;;;;;;33.60;15.57;;;9.80;99.90;;;;;;4957550;28;20062;-79
2024/03/22 06:43:51;;;;;;;36.47;16.65;;;9.90;99.90;;;;;;4971596;28;20049;-78
2024/03/22 06:46:19;;;;;;;34.90;15.98;;;10.00;99.90;;;;;;4985349;28;20371;-79
2024/03/22 06:48:45;;;;;;;34.00;14.82;;;10.10;99.90;;;;;;4969155;28;20568;-79
2024/03/22 06:51:13;;;;;;;32.72;15.25;;;10.10;99.90;;;;;;4971562;28;20094;-79
2024/03/22 06:53:40;;;;;;;38.03;17.83;;;10.20;99.90;;;;;;4966477;28;20042;-79
2024/03/22 06:56:08;;;;;;;39.13;19.40;;;10.30;99.90;;;;;;4986987;28;20389;-79
2024/03/22 06:58:36;;;;;;;44.05;18.00;;;10.40;99.90;;;;;;4976222;28;20046;-80
2024/03/22 07:01:05;;;;;;;44.70;17.05;;;10.50;99.90;;;;;;4966689;28;20069;-80
2024/03/22 07:03:31;;;;;;;34.55;16.83;;;10.70;99.90;;;;;;4975123;28;20548;-80
2024/03/22 07:05:59;;;;;;;39.60;18.98;;;10.80;99.90;;;;;;4972861;28;20050;-80
2024/03/22 07:08:25;;;;;;;40.08;19.00;;;11.00;99.90;;;;;;4959165;28;20038;-80
2024/03/22 07:10:52;;;;;;;39.78;18.00;;;11.20;99.90;;;;;;4977137;28;20056;-80
2024/03/22 07:13:19;;;;;;;40.17;17.90;;;11.50;99.90;;;;;;5006154;28;20080;-80
2024/03/22 07:15:47;;;;;;;33.65;15.93;;;11.60;99.90;;;;;;4997935;28;20395;-81
2024/03/22 07:18:16;;;;;;;38.90;17.42;;;11.70;99.90;;;;;;5016336;28;20060;-79
2024/03/22 07:20:44;;;;;;;36.72;15.38;;;11.80;99.90;;;;;;4997835;28;20070;-78
2024/03/22 07:23:10;;;;;;;29.70;14.52;;;11.90;99.90;;;;;;4992634;28;20033;-79
2024/03/22 07:25:38;;;;;;;36.15;14.85;;;11.90;99.90;;;;;;5004214;28;20405;-81
2024/03/22 07:28:05;;;;;;;30.50;14.82;;;12.00;99.90;;;;;;4987895;28;20030;-80
2024/03/22 07:30:32;;;;;;;28.23;14.15;;;12.10;99.90;;;;;;4988612;28;20044;-78
2024/03/22 07:32:58;;;;;;;29.33;13.13;;;12.10;99.90;;;;;;4993988;28;20089;-78
2024/03/22 07:35:27;;;;;;;32.25;15.43;;;12.20;99.90;;;;;;4972903;28;20045;-78
2024/03/22 07:37:54;;;;;;;29.17;12.88;;;12.20;99.90;;;;;;5002362;28;20397;-79
2024/03/22 07:40:21;;;;;;;29.00;13.60;;;12.30;99.90;;;;;;4992268;28;20053;-78
2024/03/22 07:42:48;;;;;;;27.92;13.25;;;12.30;99.90;;;;;;4994658;28;20046;-81
2024/03/22 07:45:15;;;;;;;25.90;12.63;;;12.30;99.90;;;;;;4980467;28;20055;-80
2024/03/22 07:47:43;;;;;;;30.23;14.95;;;12.40;99.90;;;;;;4994577;28;20386;-79
2024/03/22 07:50:11;;;;;;;29.52;14.48;;;12.50;99.90;;;;;;4985111;28;20049;-77
2024/03/22 07:52:39;;;;;;;28.08;13.85;;;12.50;99.90;;;;;;5004845;28;20494;-79
2024/03/22 07:55:06;;;;;;;32.00;14.85;;;12.50;99.90;;;;;;4989999;28;20042;-80
2024/03/22 07:57:33;;;;;;;29.10;14.73;;;12.60;99.90;;;;;;4987289;28;20042;-80
2024/03/22 08:00:01;;;;;;;26.08;14.25;;;12.50;99.90;;;;;;4985196;28;20052;-78
2024/03/22 08:02:37;;;;;;;32.55;15.57;;;12.60;99.90;;;;;;5003572;28;20054;-81
2024/03/22 08:05:06;;;;;;;30.95;15.07;;;12.60;99.90;;;;;;4971391;28;20054;-79
2024/03/22 08:07:32;;;;;;;28.25;13.90;;;12.70;99.90;;;;;;4989083;28;20038;-80
2024/03/22 08:10:02;;;;;;;28.90;14.93;;;12.70;99.90;;;;;;5006108;28;20069;-80
2024/03/22 08:12:28;;;;;;;30.58;14.63;;;12.70;99.90;;;;;;4983811;28;20140;-80
2024/03/22 08:14:56;;;;;;;27.73;14.02;;;12.70;99.90;;;;;;4980128;28;20046;-80
2024/03/22 08:17:22;;;;;;;25.15;12.98;;;12.70;99.90;;;;;;5001654;28;20065;-80
2024/03/22 08:19:49;;;;;;;26.98;13.40;;;12.60;99.90;;;;;;4983571;28;20053;-79
2024/03/22 08:22:16;;;;;;;28.83;15.48;;;12.60;99.90;;;;;;4983854;28;20136;-74
2024/03/22 08:24:43;;;;;;;28.20;13.95;;;12.60;99.90;;;;;;4987239;28;20042;-75
2024/03/22 08:27:11;;;;;;;23.10;12.35;;;12.70;99.90;;;;;;4980441;28;20445;-74
2024/03/22 08:29:38;;;;;;;35.40;14.63;;;12.80;99.90;;;;;;4984691;28;20056;-74
2024/03/22 08:32:05;;;;;;;30.10;14.63;;;12.90;99.90;;;;;;4995161;28;20096;-74
2024/03/22 08:34:33;;;;;;;26.27;14.57;;;12.90;99.90;;;;;;4967451;28;20054;-75
2024/03/22 08:36:59;;;;;;;26.75;14.70;;;13.10;99.90;;;;;;4984984;28;20046;-76
2024/03/22 08:39:26;;;;;;;27.42;13.43;;;13.20;99.90;;;;;;4999950;28;20042;-73
2024/03/22 08:41:53;;;;;;;29.55;15.05;;;13.20;99.90;;;;;;4990046;28;20049;-74
2024/03/22 08:44:22;;;;;;;25.42;14.57;;;13.50;99.90;;;;;;4969689;28;20042;-74
2024/03/22 08:46:49;;;;;;;26.63;14.02;;;13.60;99.90;;;;;;4982970;28;20042;-75
2024/03/22 08:49:19;;;;;;;26.50;13.80;;;13.70;99.90;;;;;;4980087;28;20490;-75
2024/03/22 08:51:46;;;;;;;27.77;12.88;;;13.70;99.90;;;;;;4985243;28;20548;-75
2024/03/22 08:54:13;;;;;;;21.08;11.02;;;13.80;99.90;;;;;;4989237;28;20045;-75
2024/03/22 08:56:39;;;;;;;22.42;11.85;;;13.80;99.90;;;;;;4969202;28;20089;-76
2024/03/22 08:59:07;;;;;;;21.58;11.90;;;13.80;99.90;;;;;;5003991;28;20048;-75
2024/03/22 09:01:35;;;;;;;26.33;12.40;;;13.90;99.90;;;;;;4985809;28;20153;-76
2024/03/22 09:04:02;;;;;;;20.92;11.30;;;13.80;99.90;;;;;;4990239;28;20046;-73
2024/03/22 09:06:29;;;;;;;21.85;11.02;;;13.90;99.90;;;;;;4986467;28;20033;-74
2024/03/22 09:08:57;;;;;;;23.20;11.55;;;13.80;99.90;;;;;;4989821;28;20050;-74
2024/03/22 09:11:24;;;;;;;21.67;11.32;;;13.80;99.90;;;;;;4969042;28;20065;-76
2024/03/22 09:13:53;;;;;;;21.60;11.82;;;13.80;99.90;;;;;;4969812;28;20050;-74
2024/03/22 09:16:20;;;;;;;21.70;11.95;;;13.80;99.90;;;;;;4973451;28;20046;-74
2024/03/22 09:18:49;;;;;;;21.52;11.57;;;13.90;99.90;;;;;;4969048;28;20049;-75
2024/03/22 09:21:15;;;;;;;25.67;12.45;;;14.00;99.90;;;;;;4984379;28;20483;-75
2024/03/22 09:23:42;;;;;;;22.38;11.57;;;14.10;99.90;;;;;;4971255;28;20054;-76
2024/03/22 09:26:10;;;;;;;18.38;10.88;;;14.40;99.80;;;;;;4979071;28;20498;-75
2024/03/22 09:28:36;;;;;;;19.30;10.48;;;14.40;98.90;;;;;;4968765;28;20053;-74
2024/03/22 09:31:07;;;;;;;23.63;10.73;;;14.60;98.50;;;;;;4982888;28;20041;-74
2024/03/22 09:33:34;;;;;;;24.27;11.05;;;14.70;98.00;;;;;;4969042;28;20050;-76
2024/03/22 09:36:03;;;;;;;18.88;10.75;;;14.90;97.70;;;;;;4950055;28;20039;-74
2024/03/22 09:38:30;;;;;;;23.55;11.75;;;15.20;97.00;;;;;;4965764;28;20042;-73
2024/03/22 09:40:57;;;;;;;23.55;12.38;;;15.40;96.30;;;;;;4968951;28;20151;-75
2024/03/22 09:43:27;;;;;;;18.63;10.00;;;15.30;95.60;;;;;;4966716;28;20034;-73
2024/03/22 09:45:56;;;;;;;22.67;11.48;;;15.20;96.30;;;;;;4953979;28;20047;-73
2024/03/22 09:48:24;;;;;;;20.85;11.23;;;15.40;96.20;;;;;;4949945;28;20043;-74
2024/03/22 09:50:52;;;;;;;21.08;11.15;;;15.40;96.00;;;;;;4972303;28;20043;-75
2024/03/22 09:53:21;;;;;;;23.25;12.18;;;15.50;96.10;;;;;;4969806;28;20399;-74
2024/03/22 09:55:49;;;;;;;23.30;11.52;;;15.60;95.40;;;;;;4983103;28;20034;-73
2024/03/22 09:58:16;;;;;;;19.05;12.23;;;15.80;95.40;;;;;;4971596;28;20038;-74
2024/03/22 10:00:44;;;;;;;20.48;11.25;;;15.90;95.00;;;;;;4966708;28;20085;-73
2024/03/22 10:03:11;;;;;;;20.10;10.98;;;15.90;94.50;;;;;;4955575;28;20046;-74
2024/03/22 10:05:39;;;;;;;19.75;12.18;;;16.00;96.10;;;;;;4966094;28;20050;-74
2024/03/22 10:08:05;;;;;;;89.63;43.05;;;15.90;95.00;;;;;;4949723;28;20057;-75
2024/03/22 10:10:34;;;;;;;31.90;16.50;;;16.00;95.60;;;;;;4964217;28;20051;-76
2024/03/22 10:13:01;;;;;;;42.75;26.30;;;16.20;95.40;;;;;;4953618;28;20498;-73
2024/03/22 10:15:30;;;;;;;23.27;11.98;;;16.20;94.90;;;;;;4972592;28;20126;-74
2024/03/22 10:17:57;;;;;;;18.05;10.40;;;16.20;94.20;;;;;;4968266;28;20038;-74
2024/03/22 10:20:25;;;;;;;18.67;10.15;;;16.20;93.80;;;;;;4968894;28;20046;-74
2024/03/22 10:22:57;;;;;;;17.08;10.02;;;16.10;93.60;;;;;;4952971;28;20054;-73
2024/03/22 10:25:25;;;;;;;19.90;10.38;;;16.20;93.60;;;;;;4966229;28;20541;-76
2024/03/22 10:27:54;;;;;;;18.52;9.57;;;16.10;92.80;;;;;;4949483;28;20136;-76
2024/03/22 10:30:23;;;;;;;17.77;9.85;;;16.10;92.90;;;;;;4957855;28;20051;-73
2024/03/22 10:32:51;;;;;;;17.25;10.50;;;16.20;93.30;;;;;;4983628;28;20074;-73
2024/03/22 10:35:19;;;;;;;16.48;9.75;;;16.20;93.20;;;;;;4949861;28;20066;-74
2024/03/22 10:37:45;;;;;;;15.98;10.27;;;16.20;92.80;;;;;;4963976;28;20042;-73
2024/03/22 10:40:14;;;;;;;14.50;9.35;;;16.40;92.60;;;;;;4971733;28;20505;-74
2024/03/22 10:42:41;;;;;;;18.67;9.60;;;16.50;92.70;;;;;;4980475;28;20082;-78
2024/03/22 10:45:13;;;;;;;16.40;9.57;;;16.50;92.70;;;;;;4997330;28;20046;-85
2024/03/22 10:47:40;;;;;;;15.20;8.90;;;16.50;92.30;;;;;;4975859;28;20143;-84
2024/03/22 10:50:10;;;;;;;15.18;9.38;;;16.60;92.10;;;;;;4973795;28;20296;-77
2024/03/22 10:52:40;;;;;;;12.55;7.90;;;16.70;92.10;;;;;;4990337;28;20038;-82
2024/03/22 10:55:11;;;;;;;15.93;7.65;;;16.90;91.90;;;;;;4980406;28;20109;-82
2024/03/22 10:57:39;;;;;;;12.60;7.95;;;17.20;91.60;;;;;;4963594;28;20057;-80
2024/03/22 11:00:11;;;;;;;16.70;8.90;;;17.20;91.10;;;;;;4981636;28;20053;-84
2024/03/22 11:02:39;;;;;;;13.77;8.63;;;16.90;90.80;;;;;;4983075;28;20058;-83
2024/03/22 11:05:07;;;;;;;13.32;7.47;;;17.00;91.00;;;;;;4981411;28;20050;-82
2024/03/22 11:07:34;;;;;;;15.18;8.10;;;16.90;91.30;;;;;;4979215;28;20050;-81
2024/03/22 11:10:03;;;;;;;16.35;8.93;;;17.00;90.80;;;;;;4977230;28;20053;-80
2024/03/22 11:12:33;;;;;;;16.35;7.82;;;16.90;90.70;;;;;;4977569;28;20129;-80
2024/03/22 11:15:00;;;;;;;14.15;7.45;;;16.70;90.60;;;;;;4982151;28;20035;-84
2024/03/22 11:17:29;;;;;;;10.27;6.45;;;16.60;90.50;;;;;;4982983;28;20026;-81
2024/03/22 11:19:58;;;;;;;9.73;5.63;;;16.50;89.20;;;;;;5003038;28;20675;-82
2024/03/22 11:22:27;;;;;;;9.23;6.05;;;16.60;88.90;;;;;;4983407;28;20057;-83
2024/03/22 11:24:53;;;;;;;12.10;6.90;;;16.50;88.50;;;;;;4991878;28;20047;-84
2024/03/22 11:27:20;;;;;;;14.20;7.97;;;16.60;88.50;;;;;;4973959;28;20023;-78
2024/03/22 11:29:47;;;;;;;9.70;6.65;;;16.70;89.00;;;;;;4961782;28;20108;-83
2024/03/22 11:32:16;;;;;;;13.68;7.60;;;16.70;89.20;;;;;;4978284;28;20035;-83
2024/03/22 11:34:44;;;;;;;13.80;7.60;;;16.70;88.60;;;;;;4977430;28;20047;-83
2024/03/22 11:37:11;;;;;;;13.65;8.63;;;16.70;89.60;;;;;;4955030;28;20039;-80
2024/03/22 11:39:38;;;;;;;13.52;8.27;;;16.70;90.20;;;;;;4957472;28;20120;-81
2024/03/22 11:42:07;;;;;;;12.23;7.85;;;16.70;90.40;;;;;;4962898;28;20050;-80
2024/03/22 11:44:35;;;;;;;13.45;8.05;;;16.80;90.50;;;;;;4970080;28;20046;-79
2024/03/22 11:47:03;;;;;;;13.43;8.07;;;17.00;90.60;;;;;;4968656;28;20038;-81
2024/03/22 11:49:29;;;;;;;13.45;8.30;;;17.30;91.30;;;;;;4986173;28;20046;-83
2024/03/22 11:51:58;;;;;;;14.23;8.30;;;17.30;89.90;;;;;;4977951;28;20093;-76
2024/03/22 11:54:25;;;;;;;13.60;8.18;;;17.20;88.40;;;;;;4951223;28;20073;-77
2024/03/22 11:56:52;;;;;;;14.00;7.80;;;17.00;88.80;;;;;;4969510;28;20044;-74
2024/03/22 11:59:20;;;;;;;12.27;7.47;;;17.00;87.10;;;;;;4952095;28;20050;-76
2024/03/22 12:01:47;;;;;;;11.50;7.45;;;17.20;87.10;;;;;;4965926;28;20077;-75
2024/03/22 12:04:15;;;;;;;9.13;5.60;;;17.10;84.70;;;;;;4963171;28;20556;-74
2024/03/22 12:06:43;;;;;;;10.65;6.07;;;17.00;83.80;;;;;;4963991;28;20045;-74
2024/03/22 12:09:12;;;;;;;10.30;5.68;;;17.10;82.40;;;;;;4967841;28;20049;-75
2024/03/22 12:11:40;;;;;;;9.02;5.45;;;17.30;81.50;;;;;;4950662;28;20101;-74
2024/03/22 12:14:06;;;;;;;10.65;5.53;;;17.60;80.20;;;;;;4967974;28;20923;-76
2024/03/22 12:16:33;;;;;;;7.28;5.07;;;17.60;78.60;;;;;;4952896;28;20129;-76
2024/03/22 12:19:00;;;;;;;10.23;5.43;;;17.60;79.60;;;;;;4962894;28;20486;-77
2024/03/22 12:21:27;;;;;;;7.70;3.97;;;17.70;77.90;;;;;;4962483;28;20039;-75
2024/03/22 12:23:53;;;;;;;7.90;4.35;;;17.80;78.50;;;;;;4965627;28;20034;-75
2024/03/22 12:26:23;;;;;;;8.32;3.92;;;18.00;78.30;;;;;;4965409;28;20047;-75
2024/03/22 12:28:49;;;;;;;8.02;4.45;;;18.10;77.30;;;;;;4969471;28;20047;-76
2024/03/22 12:31:18;;;;;;;8.82;4.85;;;17.90;76.20;;;;;;4951526;28;20050;-74
2024/03/22 12:33:45;;;;;;;9.38;4.90;;;18.00;76.20;;;;;;4966160;28;20062;-76